Terminal Aerodrome Forecast
Issued by NWS Goodland, KS

Home | Current Version | Previous Version | Text Only | Print | Product List | Glossary On
Versions: 1 2 3 4 5 6 7 8 9 10 11 12 13 14 15
000
FTUS43 KGLD 291120
TAFGLD
TAF
KGLD 291120Z 2912/3012 29007KT P6SM SCT100
     FM291500 35010G16KT P6SM SKC
     FM300000 VRB06KT P6SM SCT150
     FM300600 16010KT P6SM VCSH SCT050 SCT150=

USA.gov is the U.S. government's official web portal to all federal, state and local government web resources and services.